createdAt,value
2022-10-19T00:01:27.747Z,100195.38
2022-10-19T00:03:57.788Z,100196.66
2022-10-19T00:06:26.983Z,100194.94
2022-10-19T00:09:00.949Z,100191.47
2022-10-19T00:11:30.384Z,100185.50
2022-10-19T00:14:01.994Z,100181.41
2022-10-19T00:16:31.289Z,100182.25
2022-10-19T00:19:04.677Z,100180.25
2022-10-19T00:21:32.979Z,100171.75
2022-10-19T00:24:05.779Z,100160.16
2022-10-19T00:26:34.072Z,100167.16
2022-10-19T00:29:05.081Z,100164.72
2022-10-19T00:31:34.114Z,100163.78
2022-10-19T00:34:06.684Z,100167.44
2022-10-19T00:36:36.251Z,100164.84
2022-10-19T00:39:07.802Z,100159.88
2022-10-19T00:41:36.497Z,100154.44
2022-10-19T00:44:06.199Z,100154.94
2022-10-19T00:46:35.332Z,100149.81
2022-10-19T00:49:10.988Z,100142.84
2022-10-19T00:51:40.650Z,100143.78
2022-10-19T00:54:13.489Z,100137.56
2022-10-19T00:56:43.050Z,100124.59
2022-10-19T00:59:13.416Z,100133.16
2022-10-19T01:01:42.350Z,100129.38
2022-10-19T01:04:14.586Z,100127.03
2022-10-19T01:06:43.246Z,100121.59
2022-10-19T01:09:16.213Z,100124.94
2022-10-19T01:11:45.271Z,100120.22
2022-10-19T01:14:18.187Z,100114.41
2022-10-19T01:16:48.793Z,100115.91
2022-10-19T01:19:30.489Z,100111.87
2022-10-19T01:22:01.635Z,100109.03
2022-10-19T01:24:43.581Z,100108.47
2022-10-19T01:27:39.321Z,100106.00
2022-10-19T01:30:10.305Z,100098.16
2022-10-19T01:32:53.835Z,100100.50
2022-10-19T01:35:28.787Z,100099.81
2022-10-19T01:38:16.142Z,100102.13
2022-10-19T01:40:46.671Z,100087.06
2022-10-19T01:43:18.794Z,100086.66
2022-10-19T01:45:49.256Z,100082.16
2022-10-19T01:48:21.653Z,100076.84
2022-10-19T01:50:51.461Z,100072.62
2022-10-19T01:53:20.966Z,100073.56
2022-10-19T01:55:50.671Z,100071.28
2022-10-19T01:58:23.628Z,100072.75
2022-10-19T02:00:54.139Z,100079.03
2022-10-19T02:03:24.249Z,100070.81
2022-10-19T02:05:53.066Z,100076.75
2022-10-19T02:08:24.215Z,100084.00
2022-10-19T02:10:53.636Z,100084.59
2022-10-19T02:13:26.895Z,100080.69
2022-10-19T02:15:57.067Z,100096.25
2022-10-19T02:18:26.863Z,100092.72
2022-10-19T02:20:55.802Z,100087.19
2022-10-19T02:23:28.145Z,100082.72
2022-10-19T02:25:57.039Z,100084.19
2022-10-19T02:28:29.982Z,100086.81
2022-10-19T02:31:00.566Z,100086.84
2022-10-19T02:33:29.720Z,100091.13
2022-10-19T02:35:58.140Z,100093.97
2022-10-19T02:38:32.610Z,100088.81
2022-10-19T02:41:04.136Z,100087.00
2022-10-19T02:43:34.929Z,100081.16
2022-10-19T02:46:06.026Z,100077.84
2022-10-19T02:48:35.663Z,100077.75
2022-10-19T02:51:03.946Z,100076.88
2022-10-19T02:53:32.757Z,100076.66
2022-10-19T02:56:05.404Z,100087.06
2022-10-19T02:58:40.437Z,100084.94
2022-10-19T03:01:10.463Z,100083.53
2022-10-19T03:03:39.096Z,100084.56
2022-10-19T03:06:07.694Z,100085.38
2022-10-19T03:08:38.485Z,100087.19
2022-10-19T03:11:07.436Z,100080.13
2022-10-19T03:13:38.019Z,100087.94
2022-10-19T03:16:11.477Z,100088.03
2022-10-19T03:18:46.691Z,100088.03
2022-10-19T03:21:14.980Z,100086.62
2022-10-19T03:23:46.214Z,100093.94
2022-10-19T03:26:16.941Z,100090.34
2022-10-19T03:28:46.991Z,100098.28
2022-10-19T03:31:16.606Z,100087.38
2022-10-19T03:33:51.028Z,100090.53
2022-10-19T03:36:23.351Z,100082.56
2022-10-19T03:38:56.585Z,100102.84
2022-10-19T03:46:38.797Z,100102.72
2022-10-19T03:49:07.419Z,100100.69
2022-10-19T03:51:43.824Z,100099.50
2022-10-19T03:54:16.106Z,100112.63
2022-10-19T03:56:45.002Z,100108.34
2022-10-19T03:59:19.756Z,100106.06
2022-10-19T04:01:49.920Z,100110.03
2022-10-19T04:04:20.153Z,100111.69
2022-10-19T04:06:49.178Z,100110.31
2022-10-19T04:09:19.119Z,100098.28
2022-10-19T04:11:48.126Z,100102.47
2022-10-19T04:14:26.821Z,100103.59
2022-10-19T04:17:06.452Z,100108.25
2022-10-19T04:19:35.093Z,100104.66
2022-10-19T04:22:05.641Z,100108.25
2022-10-19T04:24:33.915Z,100111.50
2022-10-19T04:27:04.063Z,100108.72
2022-10-19T04:29:35.773Z,100111.16
2022-10-19T04:32:09.748Z,100110.59
2022-10-19T04:34:40.042Z,100101.28
2022-10-19T04:37:09.606Z,100090.44
2022-10-19T04:39:41.245Z,100085.38
2022-10-19T04:42:11.059Z,100082.44
2022-10-19T04:44:39.718Z,100097.03
2022-10-19T04:47:13.508Z,100109.28
2022-10-19T04:49:42.398Z,100105.66
2022-10-19T04:52:14.504Z,100108.75
2022-10-19T04:54:43.362Z,100086.47
2022-10-19T04:57:13.497Z,100087.38
2022-10-19T04:59:42.099Z,100083.94
2022-10-19T05:02:17.793Z,100090.34
2022-10-19T05:04:48.566Z,100083.84
2022-10-19T05:07:17.715Z,100078.69
2022-10-19T05:09:45.926Z,100081.28
2022-10-19T05:12:19.061Z,100087.66
2022-10-19T05:14:47.610Z,100087.63
2022-10-19T05:17:25.203Z,100090.19
2022-10-19T05:19:54.183Z,100089.72
2022-10-19T05:22:23.050Z,100104.69
2022-10-19T05:24:54.514Z,100092.50
2022-10-19T05:27:27.110Z,100090.78
2022-10-19T05:29:55.697Z,100095.13
2022-10-19T05:32:26.531Z,100101.56
2022-10-19T05:34:55.883Z,100094.34
2022-10-19T05:37:25.736Z,100107.19
2022-10-19T05:39:55.501Z,100104.44
2022-10-19T05:42:24.660Z,100111.84
2022-10-19T05:44:53.605Z,100110.75
2022-10-19T05:47:26.230Z,100114.56
2022-10-19T05:49:58.664Z,100114.53
2022-10-19T05:52:30.692Z,100116.34
2022-10-19T05:54:59.369Z,100114.87
2022-10-19T05:57:34.084Z,100118.69
2022-10-19T06:00:03.193Z,100130.12
2022-10-19T06:02:40.320Z,100131.94
2022-10-19T06:05:12.020Z,100128.13
2022-10-19T06:07:43.568Z,100137.12
2022-10-19T06:10:12.399Z,100136.69
2022-10-19T06:12:44.236Z,100151.88
2022-10-19T06:15:19.536Z,100147.88
2022-10-19T06:17:48.127Z,100152.78
2022-10-19T06:20:27.086Z,100163.56
2022-10-19T06:22:55.957Z,100159.16
2022-10-19T06:25:27.908Z,100157.56
2022-10-19T06:28:06.099Z,100159.09
2022-10-19T06:30:35.692Z,100163.09
2022-10-19T06:33:06.318Z,100170.59
2022-10-19T06:35:37.466Z,100164.97
2022-10-19T06:38:07.891Z,100169.94
2022-10-19T06:40:36.544Z,100167.75
2022-10-19T06:43:05.735Z,100169.47
2022-10-19T06:45:36.001Z,100177.84
2022-10-19T06:48:08.100Z,100173.75
2022-10-19T06:50:37.702Z,100170.09
2022-10-19T06:53:09.394Z,100176.56
2022-10-19T06:55:37.660Z,100182.59
2022-10-19T07:00:38.253Z,100193.53
2022-10-19T07:03:09.312Z,100196.97
2022-10-19T07:05:42.822Z,100197.03
2022-10-19T07:08:12.269Z,100199.03
2022-10-19T07:10:43.759Z,100195.28
2022-10-19T07:13:12.627Z,100204.81
2022-10-19T07:15:41.944Z,100205.75
2022-10-19T07:18:10.517Z,100202.41
2022-10-19T07:20:43.659Z,100209.47
2022-10-19T07:23:19.867Z,100219.47
2022-10-19T07:25:48.764Z,100224.59
2022-10-19T07:28:17.663Z,100231.56
2022-10-19T07:30:49.058Z,100223.75
2022-10-19T07:33:23.093Z,100226.56
2022-10-19T07:35:59.581Z,100229.34
2022-10-19T07:38:31.399Z,100227.53
2022-10-19T07:41:05.264Z,100230.00
2022-10-19T07:43:33.922Z,100238.94
2022-10-19T07:46:02.934Z,100237.06
2022-10-19T07:48:34.572Z,100229.69
2022-10-19T07:51:05.362Z,100236.13
2022-10-19T07:53:35.507Z,100238.25
2022-10-19T07:56:06.118Z,100232.25
2022-10-19T07:58:37.514Z,100225.25
2022-10-19T08:01:12.355Z,100225.56
2022-10-19T08:04:31.763Z,100222.53
2022-10-19T08:06:32.163Z,100215.91
2022-10-19T08:09:03.987Z,100218.88
2022-10-19T08:11:34.102Z,100218.97
2022-10-19T08:14:05.722Z,100216.50
2022-10-19T08:16:39.212Z,100214.31
2022-10-19T08:19:08.615Z,100214.00
2022-10-19T08:21:44.734Z,100213.16
2022-10-19T08:24:14.130Z,100215.22
2022-10-19T08:26:44.498Z,100222.69
2022-10-19T08:29:13.665Z,100224.91
2022-10-19T08:31:44.083Z,100230.56
2022-10-19T08:34:12.965Z,100232.16
2022-10-19T08:36:50.465Z,100228.09
2022-10-19T08:39:19.339Z,100226.13
2022-10-19T08:41:55.254Z,100224.28
2022-10-19T08:44:28.566Z,100218.41
2022-10-19T08:47:01.529Z,100221.41
2022-10-19T08:49:40.934Z,100226.81
2022-10-19T08:52:14.075Z,100219.66
2022-10-19T08:54:43.842Z,100218.28
2022-10-19T08:57:16.888Z,100217.72
2022-10-19T08:59:46.599Z,100217.22
2022-10-19T09:02:16.611Z,100219.41
2022-10-19T09:04:46.650Z,100218.78
2022-10-19T09:07:22.033Z,100223.09
2022-10-19T09:09:59.211Z,100221.13
2022-10-19T09:12:35.377Z,100225.84
2022-10-19T09:15:05.811Z,100223.56
2022-10-19T09:17:35.583Z,100217.34
2022-10-19T09:20:14.989Z,100225.66
2022-10-19T09:22:45.165Z,100218.22
2022-10-19T09:25:15.104Z,100219.81
2022-10-19T09:27:44.908Z,100217.22
2022-10-19T09:30:17.302Z,100220.81
2022-10-19T09:32:48.222Z,100231.06
2022-10-19T09:35:20.735Z,100230.03
2022-10-19T09:37:59.799Z,100226.19
2022-10-19T09:40:30.502Z,100233.84
2022-10-19T09:43:03.005Z,100233.72
2022-10-19T09:45:34.302Z,100235.56
2022-10-19T09:48:07.139Z,100234.00
2022-10-19T09:50:39.931Z,100234.75
2022-10-19T09:53:17.071Z,100234.53
2022-10-19T09:58:29.147Z,100233.03
2022-10-19T10:01:01.176Z,100225.53
2022-10-19T10:03:30.746Z,100221.38
2022-10-19T10:06:03.678Z,100225.16
2022-10-19T10:08:34.995Z,100212.44
2022-10-19T10:11:08.395Z,100212.59
2022-10-19T10:13:46.114Z,100217.50
2022-10-19T10:16:15.934Z,100209.84
2022-10-19T10:18:50.921Z,100218.00
2022-10-19T10:24:22.674Z,100214.75
2022-10-19T10:26:54.591Z,100211.97
2022-10-19T10:29:23.590Z,100203.56
2022-10-19T10:31:55.602Z,100203.13
2022-10-19T10:34:45.409Z,100196.06
2022-10-19T10:37:18.329Z,100189.47
2022-10-19T10:39:48.267Z,100197.19
2022-10-19T10:42:18.691Z,100191.69
2022-10-19T10:44:47.306Z,100185.47
2022-10-19T10:47:20.501Z,100191.12
2022-10-19T10:49:54.668Z,100181.69
2022-10-19T10:52:27.739Z,100178.53
2022-10-19T10:57:49.793Z,100173.34
2022-10-19T11:00:19.240Z,100165.31
2022-10-19T11:02:52.769Z,100159.50
2022-10-19T11:05:25.171Z,100164.47
2022-10-19T11:07:54.679Z,100162.59
2022-10-19T11:10:27.182Z,100164.66
2022-10-19T11:12:59.303Z,100140.09
2022-10-19T11:15:33.005Z,100147.38
2022-10-19T11:18:04.203Z,100155.44
2022-10-19T11:20:37.500Z,100159.81
2022-10-19T11:23:09.149Z,100146.72
2022-10-19T11:25:50.121Z,100150.38
2022-10-19T11:28:22.460Z,100155.03
2022-10-19T11:31:02.293Z,100148.59
2022-10-19T11:33:35.739Z,100159.78
2022-10-19T11:36:13.567Z,100146.47
2022-10-19T11:38:44.546Z,100150.28
2022-10-19T11:41:27.339Z,100144.28
2022-10-19T11:44:00.185Z,100134.56
2022-10-19T11:46:43.388Z,100134.84
2022-10-19T11:49:14.847Z,100130.84
2022-10-19T11:51:53.192Z,100121.84
2022-10-19T11:54:25.962Z,100121.41
2022-10-19T11:57:05.587Z,100120.06
2022-10-19T11:59:39.143Z,100127.41
2022-10-19T12:02:21.811Z,100123.69
2022-10-19T12:04:52.568Z,100122.75
2022-10-19T12:07:38.969Z,100113.00
2022-10-19T12:10:13.184Z,100102.56
2022-10-19T12:12:47.266Z,100120.19
2022-10-19T12:15:24.196Z,100121.44
2022-10-19T12:17:54.295Z,100122.47
2022-10-19T12:20:27.635Z,100131.31
2022-10-19T12:22:56.993Z,100123.38
2022-10-19T12:25:30.420Z,100120.88
2022-10-19T12:27:59.319Z,100116.94
2022-10-19T12:30:31.217Z,100117.88
2022-10-19T12:33:03.186Z,100103.41
2022-10-19T12:35:46.885Z,100108.37
2022-10-19T12:38:16.914Z,100114.41
2022-10-19T12:40:46.459Z,100111.84
2022-10-19T12:43:15.525Z,100112.38
2022-10-19T12:45:46.857Z,100107.63
2022-10-19T12:48:22.626Z,100104.44
2022-10-19T12:51:12.001Z,100103.72
2022-10-19T12:53:42.286Z,100098.91
2022-10-19T12:56:12.867Z,100089.06
2022-10-19T12:58:48.574Z,100090.56
2022-10-19T13:01:20.229Z,100086.12
2022-10-19T13:03:54.359Z,100081.91
2022-10-19T13:06:31.606Z,100085.34
2022-10-19T13:09:01.090Z,100073.56
2022-10-19T13:11:36.593Z,100084.41
2022-10-19T13:14:11.539Z,100080.22
2022-10-19T13:16:56.682Z,100085.84
2022-10-19T13:19:25.628Z,100100.72
2022-10-19T13:22:22.674Z,100081.66
2022-10-19T13:25:10.264Z,100078.06
2022-10-19T13:27:41.788Z,100083.91
2022-10-19T13:30:25.591Z,100087.87
2022-10-19T13:32:55.239Z,100091.22
2022-10-19T13:35:28.527Z,100082.84
2022-10-19T13:38:13.204Z,100093.03
2022-10-19T13:40:45.394Z,100092.66
2022-10-19T13:43:17.846Z,100091.00
2022-10-19T13:45:54.519Z,100094.84
2022-10-19T13:48:25.655Z,100094.78
2022-10-19T13:50:54.804Z,100082.19
2022-10-19T13:53:24.959Z,100082.69
2022-10-19T13:56:02.975Z,100077.81
2022-10-19T13:58:49.331Z,100073.03
2022-10-19T14:01:24.680Z,100089.56
2022-10-19T14:03:59.985Z,100087.03
2022-10-19T14:06:29.416Z,100089.66
2022-10-19T14:09:15.190Z,100090.81
2022-10-19T14:11:48.414Z,100094.84
2022-10-19T14:14:22.684Z,100095.66
2022-10-19T14:16:59.707Z,100086.25
2022-10-19T14:19:44.613Z,100078.22
2022-10-19T14:22:20.314Z,100089.25
2022-10-19T14:24:57.565Z,100086.62
2022-10-19T14:27:26.635Z,100089.56
2022-10-19T14:30:09.190Z,100091.53
2022-10-19T14:32:37.852Z,100081.56
2022-10-19T14:35:23.346Z,100077.69
2022-10-19T14:37:51.661Z,100075.06
2022-10-19T14:40:26.812Z,100083.63
2022-10-19T14:42:58.230Z,100081.63
2022-10-19T14:45:34.841Z,100091.50
2022-10-19T14:48:04.269Z,100092.56
2022-10-19T14:50:48.339Z,100085.19
2022-10-19T14:53:31.781Z,100078.34
2022-10-19T14:56:02.772Z,100089.59
2022-10-19T14:58:31.493Z,100077.41
2022-10-19T15:01:00.679Z,100091.13
2022-10-19T15:03:32.409Z,100086.09
2022-10-19T15:06:01.578Z,100085.41
2022-10-19T15:08:33.902Z,100092.84
2022-10-19T15:11:04.178Z,100089.56
2022-10-19T15:13:35.966Z,100082.34
2022-10-19T15:16:04.953Z,100079.59
2022-10-19T15:18:48.772Z,100077.13
2022-10-19T15:21:19.860Z,100087.09
2022-10-19T15:23:48.565Z,100091.50
2022-10-19T15:26:20.471Z,100098.22
2022-10-19T15:28:49.430Z,100100.34
2022-10-19T15:31:21.620Z,100087.41
2022-10-19T15:33:51.302Z,100098.72
2022-10-19T15:36:21.708Z,100094.59
2022-10-19T15:38:51.463Z,100101.72
2022-10-19T15:41:26.260Z,100100.69
2022-10-19T15:43:56.724Z,100087.91
2022-10-19T15:46:27.057Z,100100.63
2022-10-19T15:48:56.955Z,100094.91
2022-10-19T15:51:33.281Z,100100.19
2022-10-19T15:54:02.790Z,100107.78
2022-10-19T15:56:37.782Z,100110.91
2022-10-19T15:59:10.317Z,100120.22
2022-10-19T16:01:39.610Z,100125.59
2022-10-19T16:04:12.492Z,100131.34
2022-10-19T16:06:41.938Z,100128.25
2022-10-19T16:09:14.856Z,100118.31
2022-10-19T16:11:45.118Z,100111.75
2022-10-19T16:14:17.892Z,100111.28
2022-10-19T16:16:46.459Z,100118.44
2022-10-19T16:19:16.605Z,100112.13
2022-10-19T16:21:50.037Z,100125.91
2022-10-19T16:24:26.016Z,100121.41
2022-10-19T16:27:01.657Z,100131.97
2022-10-19T16:29:30.543Z,100136.94
2022-10-19T16:31:59.487Z,100127.91
2022-10-19T16:34:28.010Z,100132.97
2022-10-19T16:36:56.877Z,100131.22
2022-10-19T16:39:26.395Z,100135.28
2022-10-19T16:41:59.171Z,100137.75
2022-10-19T16:44:33.077Z,100149.72
2022-10-19T16:47:03.564Z,100160.31
2022-10-19T16:49:39.626Z,100164.91
2022-10-19T16:52:07.845Z,100168.19
2022-10-19T16:54:37.461Z,100173.44
2022-10-19T16:57:12.212Z,100169.25
2022-10-19T16:59:41.532Z,100169.44
2022-10-19T17:02:13.564Z,100179.00
2022-10-19T17:04:42.592Z,100185.13
2022-10-19T17:07:13.238Z,100191.22
2022-10-19T17:09:42.802Z,100189.91
2022-10-19T17:12:15.540Z,100202.34
2022-10-19T17:14:44.120Z,100211.34
2022-10-19T17:17:15.074Z,100204.94
2022-10-19T17:19:44.071Z,100193.97
2022-10-19T17:22:15.943Z,100199.94
2022-10-19T17:24:46.624Z,100195.66
2022-10-19T17:27:21.341Z,100179.34
2022-10-19T17:29:51.268Z,100177.91
2022-10-19T17:32:23.379Z,100183.97
2022-10-19T17:34:51.852Z,100187.59
2022-10-19T17:37:20.847Z,100191.81
2022-10-19T17:39:51.548Z,100190.38
2022-10-19T17:42:26.820Z,100179.63
2022-10-19T17:44:55.812Z,100188.44
2022-10-19T17:47:30.843Z,100194.25
2022-10-19T17:50:02.779Z,100200.50
2022-10-19T17:52:32.131Z,100202.91
2022-10-19T17:55:13.042Z,100208.84
2022-10-19T17:57:51.018Z,100221.25
2022-10-19T18:00:19.958Z,100210.09
2022-10-19T18:02:52.474Z,100216.19
2022-10-19T18:05:21.332Z,100221.22
2022-10-19T18:07:52.086Z,100226.97
2022-10-19T18:10:21.550Z,100221.88
2022-10-19T18:12:54.682Z,100224.66
2022-10-19T18:15:23.966Z,100228.44
2022-10-19T18:17:58.110Z,100219.00
2022-10-19T18:20:27.304Z,100233.87
2022-10-19T18:22:57.699Z,100222.84
2022-10-19T18:25:49.307Z,100217.91
2022-10-19T18:28:24.031Z,100234.88
2022-10-19T18:30:53.335Z,100224.75
2022-10-19T18:33:24.090Z,100233.66
2022-10-19T18:35:53.524Z,100242.25
2022-10-19T18:38:26.853Z,100242.94
2022-10-19T18:40:56.840Z,100254.75
2022-10-19T18:43:30.290Z,100258.44
2022-10-19T18:46:03.403Z,100264.75
2022-10-19T18:48:36.575Z,100260.72
2022-10-19T18:51:11.265Z,100256.75
2022-10-19T18:53:41.488Z,100255.47
2022-10-19T18:56:11.135Z,100255.62
2022-10-19T18:58:41.973Z,100260.69
2022-10-19T19:01:11.903Z,100270.87
2022-10-19T19:03:41.983Z,100276.31
2022-10-19T19:06:13.054Z,100279.28
2022-10-19T19:08:42.251Z,100281.81
2022-10-19T19:11:15.534Z,100287.44
2022-10-19T19:13:57.562Z,100287.94
2022-10-19T19:16:27.365Z,100283.84
2022-10-19T19:18:57.356Z,100295.41
2022-10-19T19:21:27.189Z,100293.56
2022-10-19T19:23:58.933Z,100285.22
2022-10-19T19:26:29.029Z,100272.78
2022-10-19T19:29:02.893Z,100276.34
2022-10-19T19:31:32.122Z,100278.59
2022-10-19T19:34:03.001Z,100290.31
2022-10-19T19:36:32.009Z,100296.31
2022-10-19T19:39:07.168Z,100297.09
2022-10-19T19:41:35.882Z,100296.75
2022-10-19T19:44:06.756Z,100302.34
2022-10-19T19:46:36.775Z,100288.81
2022-10-19T19:49:05.924Z,100298.59
2022-10-19T19:51:37.236Z,100298.37
2022-10-19T19:54:07.605Z,100296.78
2022-10-19T19:56:37.738Z,100299.78
2022-10-19T19:59:13.638Z,100302.50
2022-10-19T20:01:42.398Z,100313.94
2022-10-19T20:04:11.760Z,100332.13
2022-10-19T20:06:40.922Z,100312.97
2022-10-19T20:09:12.416Z,100312.41
2022-10-19T20:11:42.865Z,100304.78
2022-10-19T20:14:16.854Z,100310.19
2022-10-19T20:16:45.909Z,100331.03
2022-10-19T20:19:15.654Z,100337.84
2022-10-19T20:21:44.767Z,100324.84
2022-10-19T20:24:14.454Z,100314.69
2022-10-19T20:26:43.468Z,100326.81
2022-10-19T20:29:22.769Z,100335.50
2022-10-19T20:32:03.235Z,100341.53
2022-10-19T20:34:32.047Z,100342.31
2022-10-19T20:37:01.226Z,100346.69
2022-10-19T20:39:30.003Z,100343.25
2022-10-19T20:44:33.385Z,100348.22
2022-10-19T20:47:03.753Z,100354.19
2022-10-19T20:49:37.029Z,100354.25
2022-10-19T20:52:05.960Z,100347.34
2022-10-19T20:54:34.703Z,100359.53
2022-10-19T20:57:03.360Z,100358.75
2022-10-19T20:59:35.295Z,100353.56
2022-10-19T21:02:05.600Z,100364.72
2022-10-19T21:04:34.981Z,100367.31
2022-10-19T21:07:15.437Z,100361.25
2022-10-19T21:09:44.242Z,100365.66
2022-10-19T21:12:16.692Z,100365.53
2022-10-19T21:14:49.374Z,100368.25
2022-10-19T21:17:21.184Z,100371.03
2022-10-19T21:19:50.799Z,100369.25
2022-10-19T21:22:22.555Z,100381.38
2022-10-19T21:24:51.127Z,100380.56
2022-10-19T21:27:21.141Z,100376.34
2022-10-19T21:29:51.663Z,100378.88
2022-10-19T21:32:24.618Z,100384.06
2022-10-19T21:35:03.307Z,100376.28
2022-10-19T21:37:32.342Z,100371.03
2022-10-19T21:40:01.145Z,100371.16
2022-10-19T21:42:29.765Z,100373.66
2022-10-19T21:45:25.241Z,100373.66
2022-10-19T21:47:52.430Z,100377.16
2022-10-19T21:50:25.708Z,100377.41
2022-10-19T21:52:54.733Z,100374.69
2022-10-19T21:55:26.858Z,100377.31
2022-10-19T21:57:55.167Z,100379.94
2022-10-19T22:00:30.856Z,100379.94
2022-10-19T22:03:00.733Z,100379.03
2022-10-19T22:05:32.105Z,100376.53
2022-10-19T22:08:00.636Z,100384.19
2022-10-19T22:10:32.822Z,100383.34
2022-10-19T22:13:02.255Z,100387.00
2022-10-19T22:15:33.678Z,100386.00
2022-10-19T22:18:04.263Z,100383.50
2022-10-19T22:20:36.205Z,100383.50
2022-10-19T22:23:05.034Z,100377.44
2022-10-19T22:25:36.701Z,100379.22
2022-10-19T22:28:05.746Z,100381.81
2022-10-19T22:30:34.580Z,100381.84
2022-10-19T22:33:08.564Z,100380.91
2022-10-19T22:35:40.014Z,100381.00
2022-10-19T22:38:08.554Z,100379.19
2022-10-19T22:40:37.348Z,100376.63
2022-10-19T22:43:09.060Z,100369.75
2022-10-19T22:45:39.838Z,100379.22
2022-10-19T22:48:12.564Z,100373.97
2022-10-19T22:50:43.229Z,100371.38
2022-10-19T22:53:11.943Z,100375.78
2022-10-19T22:55:42.660Z,100382.78
2022-10-19T23:00:47.114Z,100380.19
2022-10-19T23:03:17.788Z,100374.03
2022-10-19T23:05:48.916Z,100377.59
2022-10-19T23:08:17.323Z,100378.47
2022-10-19T23:10:46.273Z,100381.09
2022-10-19T23:13:16.551Z,100384.53
2022-10-19T23:15:52.309Z,100379.37
2022-10-19T23:18:22.681Z,100382.00
2022-10-19T23:20:54.280Z,100387.19
2022-10-19T23:23:23.339Z,100391.53
2022-10-19T23:25:58.568Z,100394.13
2022-10-19T23:28:28.126Z,100398.44
2022-10-19T23:30:58.577Z,100401.91
2022-10-19T23:33:31.512Z,100411.44
2022-10-19T23:36:04.199Z,100412.28
2022-10-19T23:38:37.409Z,100409.69
2022-10-19T23:41:05.773Z,100417.50
2022-10-19T23:43:42.187Z,100417.47
2022-10-19T23:46:10.931Z,100421.81
2022-10-19T23:48:43.342Z,100422.69
2022-10-19T23:51:12.550Z,100419.19
2022-10-19T23:53:42.968Z,100425.25
2022-10-19T23:56:12.473Z,100427.88
2022-10-19T23:58:46.615Z,100424.41
